createdAt,value
2023-06-11T00:01:25.298Z,4.55
2023-06-11T00:03:54.465Z,5.00
2023-06-11T00:06:23.392Z,5.18
2023-06-11T00:08:52.392Z,4.95
2023-06-11T00:11:19.615Z,5.22
2023-06-11T00:13:46.159Z,5.03
2023-06-11T00:16:14.789Z,4.90
2023-06-11T00:18:42.736Z,4.85
2023-06-11T00:21:10.646Z,5.20
2023-06-11T00:23:38.625Z,5.05
2023-06-11T00:26:06.757Z,4.82
2023-06-11T00:28:33.744Z,4.93
2023-06-11T00:31:05.127Z,5.28
2023-06-11T00:33:31.885Z,5.25
2023-06-11T00:35:58.512Z,5.07
2023-06-11T00:38:25.057Z,5.10
2023-06-11T00:40:51.554Z,5.40
2023-06-11T00:43:22.561Z,5.25
2023-06-11T00:45:52.061Z,4.78
2023-06-11T00:48:22.249Z,5.60
2023-06-11T00:50:52.982Z,5.72
2023-06-11T00:53:20.997Z,5.43
2023-06-11T00:55:48.367Z,5.13
2023-06-11T00:58:18.701Z,5.13
2023-06-11T01:00:48.322Z,5.18
2023-06-11T01:03:19.141Z,5.43
2023-06-11T01:06:02.725Z,5.15
2023-06-11T01:08:36.335Z,4.93
2023-06-11T01:11:04.024Z,5.32
2023-06-11T01:13:30.705Z,5.45
2023-06-11T01:16:06.753Z,5.60
2023-06-11T01:18:43.674Z,5.65
2023-06-11T01:21:15.025Z,5.60
2023-06-11T01:23:47.655Z,6.45
2023-06-11T01:26:52.773Z,5.75
2023-06-11T01:29:22.731Z,5.57
2023-06-11T01:31:51.658Z,5.40
2023-06-11T01:34:18.209Z,5.65
2023-06-11T01:36:44.789Z,5.53
2023-06-11T01:39:12.697Z,5.88
2023-06-11T01:41:39.293Z,6.00
2023-06-11T01:44:05.833Z,5.80
2023-06-11T01:46:33.229Z,5.80
2023-06-11T01:48:59.824Z,6.43
2023-06-11T01:51:26.529Z,5.35
2023-06-11T01:53:55.939Z,5.60
2023-06-11T01:56:22.440Z,5.53
2023-06-11T01:58:49.186Z,5.75
2023-06-11T02:01:15.762Z,5.78
2023-06-11T02:03:42.486Z,6.13
2023-06-11T02:06:10.018Z,5.53
2023-06-11T02:08:36.550Z,5.85
2023-06-11T02:11:04.057Z,5.75
2023-06-11T02:13:31.830Z,5.65
2023-06-11T02:16:00.045Z,5.57
2023-06-11T02:18:26.610Z,5.65
2023-06-11T02:20:53.263Z,5.32
2023-06-11T02:23:20.020Z,5.72
2023-06-11T02:25:46.617Z,5.50
2023-06-11T02:28:13.089Z,5.50
2023-06-11T02:30:39.548Z,5.50
2023-06-11T02:33:06.131Z,5.00
2023-06-11T02:35:32.644Z,5.68
2023-06-11T02:37:59.171Z,5.22
2023-06-11T02:40:25.681Z,5.80
2023-06-11T02:42:52.188Z,5.95
2023-06-11T02:45:18.638Z,5.40
2023-06-11T02:47:45.180Z,4.97
2023-06-11T02:50:11.657Z,5.35
2023-06-11T02:52:38.202Z,5.35
2023-06-11T02:55:05.113Z,5.82
2023-06-11T02:57:31.595Z,5.70
2023-06-11T02:59:58.097Z,6.10
2023-06-11T03:02:24.574Z,5.10
2023-06-11T03:04:51.075Z,6.00
2023-06-11T03:07:17.544Z,5.45
2023-06-11T03:09:44.017Z,5.50
2023-06-11T03:12:10.599Z,5.50
2023-06-11T03:14:37.085Z,5.70
2023-06-11T03:17:03.719Z,5.55
2023-06-11T03:19:30.360Z,6.10
2023-06-11T03:21:57.200Z,5.85
2023-06-11T03:24:23.793Z,5.43
2023-06-11T03:26:50.756Z,6.45
2023-06-11T03:29:17.224Z,6.72
2023-06-11T03:31:45.021Z,6.30
2023-06-11T03:34:11.623Z,5.80
2023-06-11T03:36:38.134Z,6.18
2023-06-11T03:39:04.597Z,5.70
2023-06-11T03:41:31.314Z,5.88
2023-06-11T03:43:57.818Z,6.00
2023-06-11T03:46:24.349Z,5.80
2023-06-11T03:48:50.905Z,6.20
2023-06-11T03:51:17.588Z,6.00
2023-06-11T03:53:44.207Z,6.22
2023-06-11T03:56:10.813Z,5.28
2023-06-11T03:58:37.322Z,6.13
2023-06-11T04:01:03.804Z,5.65
2023-06-11T04:03:30.381Z,5.47
2023-06-11T04:05:57.023Z,6.07
2023-06-11T04:08:23.511Z,5.93
2023-06-11T04:10:50.060Z,6.25
2023-06-11T04:13:16.681Z,5.75
2023-06-11T04:15:43.154Z,5.97
2023-06-11T04:18:11.110Z,6.22
2023-06-11T04:20:37.864Z,6.25
2023-06-11T04:23:04.449Z,5.80
2023-06-11T04:25:32.850Z,5.78
2023-06-11T04:27:59.527Z,5.40
2023-06-11T04:30:28.106Z,5.93
2023-06-11T04:32:56.461Z,5.45
2023-06-11T04:35:24.838Z,5.28
2023-06-11T04:37:51.404Z,4.70
2023-06-11T04:40:19.685Z,5.18
2023-06-11T04:42:47.591Z,4.68
2023-06-11T04:45:14.449Z,5.13
2023-06-11T04:50:08.863Z,4.53
2023-06-11T04:52:44.124Z,4.80
2023-06-11T04:55:11.673Z,4.55
2023-06-11T04:57:39.450Z,4.63
2023-06-11T05:00:12.318Z,4.30
2023-06-11T05:02:39.889Z,4.00
2023-06-11T05:05:06.962Z,4.53
2023-06-11T05:07:34.259Z,4.30
2023-06-11T05:10:02.563Z,5.03
2023-06-11T05:12:29.044Z,4.13
2023-06-11T05:14:55.560Z,4.07
2023-06-11T05:19:48.588Z,4.43
2023-06-11T05:22:15.064Z,4.20
2023-06-11T05:24:44.003Z,4.18
2023-06-11T05:27:10.766Z,4.68
2023-06-11T05:29:39.107Z,4.03
2023-06-11T05:32:06.772Z,4.45
2023-06-11T05:34:34.420Z,5.50
2023-06-11T05:37:02.230Z,5.15
2023-06-11T05:39:28.760Z,5.28
2023-06-11T05:41:55.209Z,4.35
2023-06-11T05:46:48.286Z,4.20
2023-06-11T05:49:14.929Z,4.28
2023-06-11T05:51:41.461Z,3.75
2023-06-11T05:54:08.491Z,3.85
2023-06-11T05:56:34.984Z,3.78
2023-06-11T06:01:29.733Z,3.80
2023-06-11T06:03:56.538Z,3.78
2023-06-11T06:06:23.140Z,4.25
2023-06-11T06:11:16.073Z,3.53
2023-06-11T06:13:42.546Z,4.05
2023-06-11T06:16:09.282Z,4.75
2023-06-11T06:18:38.221Z,3.78
2023-06-11T06:21:04.757Z,3.97
2023-06-11T06:25:57.808Z,3.85
2023-06-11T06:28:24.285Z,4.10
2023-06-11T06:30:51.248Z,4.03
2023-06-11T06:33:17.906Z,3.90
2023-06-11T06:35:44.481Z,4.00
2023-06-11T06:43:03.918Z,4.13
2023-06-11T06:45:30.489Z,3.80
2023-06-11T06:47:57.017Z,3.83
2023-06-11T06:50:23.569Z,4.28
2023-06-11T06:57:42.900Z,4.18
2023-06-11T07:02:36.900Z,3.95
2023-06-11T07:07:31.312Z,4.30
2023-06-11T07:09:57.796Z,3.90
2023-06-11T07:12:24.261Z,4.15
2023-06-11T07:14:51.263Z,4.20
2023-06-11T07:17:19.450Z,3.88
2023-06-11T07:19:46.185Z,4.22
2023-06-11T07:24:43.972Z,4.32
2023-06-11T07:27:11.486Z,4.47
2023-06-11T07:29:40.168Z,4.68
2023-06-11T07:32:09.919Z,4.07
2023-06-11T07:34:36.594Z,4.00
2023-06-11T07:39:29.771Z,4.53
2023-06-11T07:41:56.388Z,3.80
2023-06-11T07:44:22.866Z,4.50
2023-06-11T07:46:49.407Z,4.40
2023-06-11T07:49:16.114Z,4.28
2023-06-11T07:54:10.347Z,4.45
2023-06-11T07:56:37.041Z,3.92
2023-06-11T07:59:03.829Z,3.92
2023-06-11T08:01:30.676Z,4.20
2023-06-11T08:03:57.937Z,3.97
2023-06-11T08:06:26.582Z,3.80
2023-06-11T08:08:53.404Z,4.07
2023-06-11T08:11:20.096Z,4.10
2023-06-11T08:16:14.331Z,3.80
2023-06-11T08:26:03.936Z,3.55
2023-06-11T08:31:42.697Z,4.13
2023-06-11T08:34:09.845Z,3.58
2023-06-11T08:36:41.753Z,3.47
2023-06-11T08:39:45.962Z,3.28
2023-06-11T08:42:15.448Z,3.60
2023-06-11T08:44:44.288Z,3.58
2023-06-11T08:47:12.189Z,3.30
2023-06-11T08:50:53.765Z,3.38
2023-06-11T08:53:20.711Z,3.83
2023-06-11T08:55:47.540Z,3.50
2023-06-11T08:58:14.468Z,3.30
2023-06-11T09:01:11.059Z,3.38
2023-06-11T09:03:38.177Z,3.40
2023-06-11T09:06:05.837Z,3.50
2023-06-11T09:08:32.534Z,3.45
2023-06-11T09:11:02.962Z,3.33
2023-06-11T09:13:29.491Z,3.22
2023-06-11T09:15:57.099Z,3.47
2023-06-11T09:18:28.444Z,3.75
2023-06-11T09:20:57.553Z,3.60
2023-06-11T09:23:32.495Z,3.20
2023-06-11T09:26:01.065Z,3.33
2023-06-11T09:28:35.801Z,3.30
2023-06-11T09:31:07.227Z,3.40
2023-06-11T09:33:37.352Z,3.53
2023-06-11T09:36:04.372Z,3.47
2023-06-11T09:38:35.764Z,3.47
2023-06-11T09:41:05.846Z,3.78
2023-06-11T09:43:32.425Z,3.38
2023-06-11T09:48:26.264Z,3.80
2023-06-11T09:50:54.399Z,4.10
2023-06-11T09:53:22.397Z,3.90
2023-06-11T10:00:53.804Z,3.58
2023-06-11T10:03:20.888Z,3.92
2023-06-11T10:05:47.795Z,4.10
2023-06-11T10:08:23.346Z,4.07
2023-06-11T10:10:56.040Z,4.00
2023-06-11T10:13:30.645Z,3.85
2023-06-11T10:16:00.533Z,3.85
2023-06-11T10:18:27.850Z,3.67
2023-06-11T10:21:04.077Z,4.40
2023-06-11T10:23:41.677Z,4.03
2023-06-11T10:26:12.682Z,3.88
2023-06-11T10:28:43.393Z,3.60
2023-06-11T10:31:10.164Z,3.72
2023-06-11T10:36:26.582Z,3.85
2023-06-11T10:39:09.989Z,4.18
2023-06-11T10:41:41.104Z,4.00
2023-06-11T10:44:08.698Z,4.20
2023-06-11T10:46:47.117Z,4.28
2023-06-11T10:49:15.819Z,4.07
2023-06-11T10:51:42.714Z,3.65
2023-06-11T10:54:09.314Z,3.80
2023-06-11T10:56:41.619Z,4.07
2023-06-11T10:59:11.049Z,3.90
2023-06-11T11:01:38.418Z,3.72
2023-06-11T11:04:05.640Z,4.22
2023-06-11T11:06:32.927Z,3.58
2023-06-11T11:09:00.481Z,3.58
2023-06-11T11:11:29.801Z,3.90
2023-06-11T11:14:01.525Z,4.15
2023-06-11T11:16:28.749Z,3.83
2023-06-11T11:21:28.985Z,3.72
2023-06-11T11:23:56.869Z,3.90
2023-06-11T11:26:23.557Z,3.50
2023-06-11T11:31:21.210Z,3.72
2023-06-11T11:33:51.575Z,4.13
2023-06-11T11:36:18.199Z,3.78
2023-06-11T11:41:11.102Z,3.92
2023-06-11T11:43:40.710Z,3.92
2023-06-11T11:46:18.289Z,3.75
2023-06-11T11:48:45.260Z,4.13
2023-06-11T11:51:14.644Z,4.22
2023-06-11T11:53:42.586Z,3.65
2023-06-11T11:56:09.634Z,4.13
2023-06-11T11:58:43.070Z,3.92
2023-06-11T12:01:24.258Z,3.80
2023-06-11T12:04:02.214Z,3.70
2023-06-11T12:06:30.414Z,3.83
2023-06-11T12:08:57.184Z,4.00
2023-06-11T12:11:23.662Z,3.50
2023-06-11T12:13:50.270Z,3.85
2023-06-11T12:18:43.326Z,3.67
2023-06-11T12:23:37.404Z,3.70
2023-06-11T12:26:04.042Z,3.58
2023-06-11T12:28:30.639Z,3.40
2023-06-11T12:33:24.556Z,3.58
2023-06-11T12:35:51.271Z,3.30
2023-06-11T12:38:19.579Z,3.90
2023-06-11T12:40:46.068Z,3.10
2023-06-11T12:43:12.540Z,3.58
2023-06-11T12:45:39.115Z,3.58
2023-06-11T12:50:32.827Z,3.40
2023-06-11T12:53:00.357Z,3.42
2023-06-11T12:55:26.871Z,3.20
2023-06-11T12:57:53.432Z,3.10
2023-06-11T13:02:47.014Z,3.55
2023-06-11T13:07:39.943Z,3.67
2023-06-11T13:10:06.856Z,3.80
2023-06-11T13:12:33.767Z,4.25
2023-06-11T13:15:00.865Z,3.72
2023-06-11T13:17:27.467Z,3.13
2023-06-11T13:22:22.350Z,3.35
2023-06-11T13:24:48.989Z,3.78
2023-06-11T13:29:42.266Z,3.92
2023-06-11T13:32:09.358Z,3.80
2023-06-11T13:34:36.947Z,3.65
2023-06-11T13:37:04.244Z,3.97
2023-06-11T13:39:30.845Z,3.80
2023-06-11T13:41:58.689Z,3.60
2023-06-11T13:44:25.625Z,3.30
2023-06-11T13:46:52.660Z,3.63
2023-06-11T13:49:19.270Z,3.63
2023-06-11T13:54:12.167Z,3.25
2023-06-11T13:59:06.215Z,3.60
2023-06-11T14:01:32.819Z,3.42
2023-06-11T14:06:26.060Z,3.55
2023-06-11T14:11:19.374Z,3.10
2023-06-11T14:13:46.229Z,3.72
2023-06-11T14:16:13.047Z,3.67
2023-06-11T14:18:39.669Z,3.47
2023-06-11T14:21:06.314Z,3.78
2023-06-11T14:25:59.409Z,3.88
2023-06-11T14:30:53.947Z,3.42
2023-06-11T14:33:21.128Z,3.95
2023-06-11T14:35:48.066Z,3.55
2023-06-11T14:38:14.575Z,3.30
2023-06-11T14:40:41.420Z,3.65
2023-06-11T14:43:07.922Z,3.17
2023-06-11T14:45:34.564Z,3.75
2023-06-11T14:50:28.378Z,3.83
2023-06-11T14:52:55.231Z,3.25
2023-06-11T14:55:21.707Z,3.38
2023-06-11T14:57:48.202Z,3.70
2023-06-11T15:00:16.710Z,3.50
2023-06-11T15:02:43.315Z,4.30
2023-06-11T15:07:36.551Z,4.70
2023-06-11T15:12:31.344Z,3.33
2023-06-11T15:15:01.235Z,3.85
2023-06-11T15:17:31.108Z,4.25
2023-06-11T15:19:59.768Z,3.80
2023-06-11T15:22:26.598Z,3.80
2023-06-11T15:27:19.740Z,3.47
2023-06-11T15:29:46.370Z,3.60
2023-06-11T15:34:42.553Z,3.30
2023-06-11T15:37:09.081Z,3.47
2023-06-11T15:39:35.643Z,3.10
2023-06-11T15:42:02.517Z,3.92
2023-06-11T15:44:29.064Z,3.17
2023-06-11T15:46:55.616Z,3.22
2023-06-11T15:49:22.286Z,3.08
2023-06-11T15:54:16.260Z,3.40
2023-06-11T15:56:47.646Z,3.47
2023-06-11T15:59:15.236Z,3.40
2023-06-11T16:01:43.505Z,3.15
2023-06-11T16:04:10.499Z,3.20
2023-06-11T16:06:37.192Z,3.20
2023-06-11T16:09:03.812Z,3.80
2023-06-11T16:11:30.384Z,3.38
2023-06-11T16:13:57.056Z,3.45
2023-06-11T16:18:50.315Z,3.35
2023-06-11T16:21:17.306Z,3.53
2023-06-11T16:23:44.878Z,3.42
2023-06-11T16:26:11.666Z,8.13
2023-06-11T16:28:38.229Z,3.72
2023-06-11T16:31:04.719Z,3.55
2023-06-11T16:33:47.164Z,3.35
2023-06-11T16:36:18.471Z,3.92
2023-06-11T16:38:45.470Z,3.60
2023-06-11T16:41:12.127Z,3.75
2023-06-11T16:46:08.978Z,3.00
2023-06-11T16:48:35.802Z,3.08
2023-06-11T16:51:02.319Z,3.38
2023-06-11T16:53:30.129Z,3.97
2023-06-11T16:55:56.684Z,3.50
2023-06-11T16:58:23.397Z,3.50
2023-06-11T17:03:16.961Z,3.47
2023-06-11T17:05:43.815Z,3.60
2023-06-11T17:08:10.580Z,3.42
2023-06-11T17:10:37.117Z,3.58
2023-06-11T17:13:03.583Z,3.42
2023-06-11T17:15:30.289Z,3.92
2023-06-11T17:20:26.608Z,3.88
2023-06-11T17:22:53.198Z,3.53
2023-06-11T17:25:22.248Z,3.80
2023-06-11T17:27:48.946Z,3.50
2023-06-11T17:30:16.013Z,3.25
2023-06-11T17:32:42.631Z,3.72
2023-06-11T17:35:10.700Z,3.53
2023-06-11T17:37:37.477Z,3.55
2023-06-11T17:40:05.673Z,3.17
2023-06-11T17:42:32.137Z,3.70
2023-06-11T17:44:58.725Z,3.67
2023-06-11T17:47:25.491Z,3.55
2023-06-11T17:52:18.567Z,3.53
2023-06-11T17:54:45.433Z,3.38
2023-06-11T17:57:11.982Z,3.70
2023-06-11T17:59:38.503Z,3.67
2023-06-11T18:02:05.438Z,3.42
2023-06-11T18:04:32.174Z,3.55
2023-06-11T18:09:25.552Z,3.38
2023-06-11T18:11:52.032Z,3.53
2023-06-11T18:14:18.627Z,3.33
2023-06-11T18:16:45.163Z,3.13
2023-06-11T18:19:11.989Z,3.72
2023-06-11T18:24:08.882Z,3.58
2023-06-11T18:26:45.906Z,3.28
2023-06-11T18:29:12.467Z,3.58
2023-06-11T18:31:39.081Z,3.42
2023-06-11T18:34:07.206Z,2.83
2023-06-11T18:36:33.727Z,3.40
2023-06-11T18:39:00.345Z,3.40
2023-06-11T18:45:12.695Z,3.65
2023-06-11T18:50:57.890Z,3.15
2023-06-11T18:53:25.252Z,3.38
2023-06-11T18:56:26.174Z,3.78
2023-06-11T19:03:36.227Z,3.42
2023-06-11T19:07:17.152Z,3.40
2023-06-11T19:10:20.683Z,3.17
2023-06-11T19:12:47.252Z,3.38
2023-06-11T19:15:14.012Z,3.78
2023-06-11T19:20:51.551Z,3.50
2023-06-11T19:23:19.214Z,3.53
2023-06-11T19:25:56.245Z,3.42
2023-06-11T19:28:50.185Z,3.72
2023-06-11T19:32:04.579Z,3.35
2023-06-11T19:34:59.232Z,3.63
2023-06-11T19:37:30.429Z,3.50
2023-06-11T19:40:13.557Z,3.55
2023-06-11T19:43:27.521Z,3.70
2023-06-11T19:45:54.076Z,3.70
2023-06-11T19:48:22.676Z,3.72
2023-06-11T19:50:50.026Z,3.60
2023-06-11T19:53:16.697Z,3.88
2023-06-11T19:55:45.301Z,3.55
2023-06-11T19:58:12.197Z,3.78
2023-06-11T20:03:05.343Z,3.78
2023-06-11T20:05:33.676Z,3.40
2023-06-11T20:08:02.239Z,3.40
2023-06-11T20:10:30.184Z,4.10
2023-06-11T20:12:56.760Z,3.53
2023-06-11T20:15:23.329Z,3.55
2023-06-11T20:17:49.942Z,3.05
2023-06-11T20:20:16.624Z,3.67
2023-06-11T20:22:43.290Z,3.60
2023-06-11T20:25:09.922Z,3.80
2023-06-11T20:27:36.475Z,3.60
2023-06-11T20:30:07.118Z,3.63
2023-06-11T20:32:33.690Z,3.78
2023-06-11T20:35:00.773Z,3.95
2023-06-11T20:37:27.403Z,3.70
2023-06-11T20:39:54.025Z,3.90
2023-06-11T20:42:21.354Z,3.83
2023-06-11T20:44:48.036Z,3.80
2023-06-11T20:47:14.682Z,3.70
2023-06-11T20:49:41.533Z,4.03
2023-06-11T20:52:08.400Z,4.07
2023-06-11T20:54:35.918Z,4.13
2023-06-11T20:57:02.743Z,3.70
2023-06-11T20:59:29.398Z,3.70
2023-06-11T21:01:56.041Z,3.75
2023-06-11T21:04:22.613Z,3.85
2023-06-11T21:06:49.125Z,4.10
2023-06-11T21:09:15.651Z,4.05
2023-06-11T21:11:43.226Z,3.58
2023-06-11T21:14:14.747Z,3.90
2023-06-11T21:16:42.021Z,3.83
2023-06-11T21:21:35.345Z,3.78
2023-06-11T21:24:03.456Z,4.00
2023-06-11T21:26:30.448Z,4.38
2023-06-11T21:28:57.709Z,4.20
2023-06-11T21:31:24.606Z,3.85
2023-06-11T21:33:51.169Z,4.25
2023-06-11T21:36:17.756Z,3.90
2023-06-11T21:38:44.511Z,4.25
2023-06-11T21:41:11.169Z,3.70
2023-06-11T21:43:37.707Z,3.80
2023-06-11T21:46:04.327Z,3.97
2023-06-11T21:48:30.908Z,3.90
2023-06-11T21:50:57.465Z,4.00
2023-06-11T21:53:24.153Z,3.72
2023-06-11T21:55:50.790Z,3.83
2023-06-11T21:58:17.294Z,3.92
2023-06-11T22:00:43.872Z,3.60
2023-06-11T22:03:11.097Z,3.97
2023-06-11T22:05:37.808Z,3.90
2023-06-11T22:08:04.490Z,4.00
2023-06-11T22:10:31.217Z,3.97
2023-06-11T22:12:59.166Z,4.00
2023-06-11T22:15:25.830Z,3.80
2023-06-11T22:17:54.073Z,3.90
2023-06-11T22:20:21.085Z,3.80
2023-06-11T22:22:47.797Z,4.20
2023-06-11T22:25:14.510Z,4.03
2023-06-11T22:27:42.863Z,4.07
2023-06-11T22:30:11.883Z,4.10
2023-06-11T22:32:39.039Z,3.65
2023-06-11T22:35:06.400Z,3.97
2023-06-11T22:37:35.077Z,4.22
2023-06-11T22:40:02.598Z,3.55
2023-06-11T22:42:29.476Z,3.75
2023-06-11T22:44:56.029Z,4.10
2023-06-11T22:47:22.546Z,3.72
2023-06-11T22:49:49.124Z,3.88
2023-06-11T22:52:17.658Z,3.78
2023-06-11T22:54:44.245Z,4.18
2023-06-11T22:57:11.745Z,3.92
2023-06-11T22:59:38.338Z,3.67
2023-06-11T23:02:05.043Z,3.92
2023-06-11T23:04:34.264Z,3.90
2023-06-11T23:07:03.380Z,3.85
2023-06-11T23:09:30.663Z,3.97
2023-06-11T23:14:23.822Z,4.20
2023-06-11T23:16:50.529Z,4.38
2023-06-11T23:19:26.415Z,3.90
2023-06-11T23:21:57.507Z,3.60
2023-06-11T23:24:27.649Z,3.83
2023-06-11T23:26:57.589Z,4.07
2023-06-11T23:29:24.950Z,3.95
2023-06-11T23:31:51.823Z,4.03
2023-06-11T23:34:18.642Z,4.53
2023-06-11T23:36:45.509Z,4.20
2023-06-11T23:39:12.193Z,4.05
2023-06-11T23:41:38.668Z,4.38
2023-06-11T23:44:05.603Z,4.13
2023-06-11T23:46:34.616Z,3.97
2023-06-11T23:49:01.368Z,4.30
2023-06-11T23:51:29.361Z,4.10
2023-06-11T23:53:56.286Z,4.28
2023-06-11T23:56:23.450Z,4.22
